sensor_id;sensor_type;location;lat;lon;timestamp;pressure;altitude;pressure_sealevel;temperature;humidity
42247;BME280;27913;42.722;23.268;2022-10-20T00:01:51;95491.59;;;13.03;79.82
42247;BME280;27913;42.722;23.268;2022-10-20T00:04:17;95478.34;;;12.96;79.65
42247;BME280;27913;42.722;23.268;2022-10-20T00:06:43;95458.53;;;12.85;79.82
42247;BME280;27913;42.722;23.268;2022-10-20T00:09:10;95487.88;;;12.97;80.00
42247;BME280;27913;42.722;23.268;2022-10-20T00:11:36;95482.34;;;12.92;80.01
42247;BME280;27913;42.722;23.268;2022-10-20T00:14:02;95492.91;;;12.92;79.36
42247;BME280;27913;42.722;23.268;2022-10-20T00:16:30;95488.84;;;12.89;79.22
42247;BME280;27913;42.722;23.268;2022-10-20T00:18:57;95457.59;;;12.71;78.74
42247;BME280;27913;42.722;23.268;2022-10-20T00:21:25;95449.13;;;12.76;78.27
42247;BME280;27913;42.722;23.268;2022-10-20T00:23:51;95486.66;;;12.93;77.84
42247;BME280;27913;42.722;23.268;2022-10-20T00:26:22;95485.81;;;12.92;77.45
42247;BME280;27913;42.722;23.268;2022-10-20T00:28:49;95368.25;;;12.17;77.29
42247;BME280;27913;42.722;23.268;2022-10-20T00:31:15;95484.94;;;12.85;76.85
42247;BME280;27913;42.722;23.268;2022-10-20T00:33:41;95484.75;;;12.87;76.59
42247;BME280;27913;42.722;23.268;2022-10-20T00:36:08;95420.94;;;12.54;76.18
42247;BME280;27913;42.722;23.268;2022-10-20T00:38:36;95476.59;;;12.82;76.08
42247;BME280;27913;42.722;23.268;2022-10-20T00:41:01;95482.28;;;12.85;75.86
42247;BME280;27913;42.722;23.268;2022-10-20T00:43:51;95475.75;;;12.81;75.43
42247;BME280;27913;42.722;23.268;2022-10-20T00:49:07;95476.97;;;12.78;74.95
42247;BME280;27913;42.722;23.268;2022-10-20T00:51:37;95477.34;;;12.75;74.68
42247;BME280;27913;42.722;23.268;2022-10-20T00:54:07;95467.97;;;12.73;74.24
42247;BME280;27913;42.722;23.268;2022-10-20T00:56:34;95444.06;;;12.52;74.03
42247;BME280;27913;42.722;23.268;2022-10-20T00:59:01;95433.44;;;12.46;74.08
42247;BME280;27913;42.722;23.268;2022-10-20T01:04:03;95313.88;;;11.57;73.45
42247;BME280;27913;42.722;23.268;2022-10-20T01:06:29;95232.63;;;11.17;73.23
42247;BME280;27913;42.722;23.268;2022-10-20T01:08:56;95273.94;;;11.39;72.87
42247;BME280;27913;42.722;23.268;2022-10-20T01:11:39;95342.94;;;11.86;72.66
42247;BME280;27913;42.722;23.268;2022-10-20T01:15:00;95221.72;;;11.05;72.53
42247;BME280;27913;42.722;23.268;2022-10-20T01:17:23;95230.34;;;11.14;72.18
42247;BME280;27913;42.722;23.268;2022-10-20T01:25:17;95147.25;;;10.53;72.52
42247;BME280;27913;42.722;23.268;2022-10-20T01:27:53;95182.97;;;10.62;72.46
42247;BME280;27913;42.722;23.268;2022-10-20T01:30:23;95468.16;;;12.49;72.81
42247;BME280;27913;42.722;23.268;2022-10-20T01:33:38;95468.66;;;12.38;73.21
42247;BME280;27913;42.722;23.268;2022-10-20T01:35:54;95469.03;;;12.35;73.88
42247;BME280;27913;42.722;23.268;2022-10-20T01:38:53;95394.94;;;11.77;74.81
42247;BME280;27913;42.722;23.268;2022-10-20T01:41:30;95330.47;;;11.21;74.98
42247;BME280;27913;42.722;23.268;2022-10-20T01:44:02;95201.00;;;10.35;75.04
42247;BME280;27913;42.722;23.268;2022-10-20T01:46:29;95240.47;;;10.50;75.37
42247;BME280;27913;42.722;23.268;2022-10-20T01:48:57;95397.81;;;11.45;76.09
42247;BME280;27913;42.722;23.268;2022-10-20T01:51:25;95276.38;;;10.58;76.04
42247;BME280;27913;42.722;23.268;2022-10-20T01:53:51;95218.81;;;10.24;75.86
42247;BME280;27913;42.722;23.268;2022-10-20T01:56:22;95328.53;;;10.84;76.34
42247;BME280;27913;42.722;23.268;2022-10-20T01:59:00;95430.88;;;11.48;76.62
42247;BME280;27913;42.722;23.268;2022-10-20T02:04:21;95503.34;;;11.74;77.39
42247;BME280;27913;42.722;23.268;2022-10-20T02:07:08;95495.88;;;11.47;78.23
42247;BME280;27913;42.722;23.268;2022-10-20T02:09:44;95509.03;;;11.47;78.47
42247;BME280;27913;42.722;23.268;2022-10-20T02:12:27;95450.97;;;11.10;78.83
42247;BME280;27913;42.722;23.268;2022-10-20T02:14:54;95479.44;;;11.30;78.27
42247;BME280;27913;42.722;23.268;2022-10-20T02:17:20;95504.97;;;11.45;78.56
42247;BME280;27913;42.722;23.268;2022-10-20T02:19:49;95513.53;;;11.47;78.56
42247;BME280;27913;42.722;23.268;2022-10-20T02:22:17;95441.25;;;10.96;79.21
42247;BME280;27913;42.722;23.268;2022-10-20T02:24:45;95515.69;;;11.43;79.80
42247;BME280;27913;42.722;23.268;2022-10-20T02:29:50;95518.22;;;11.37;80.45
42247;BME280;27913;42.722;23.268;2022-10-20T02:32:18;95521.19;;;11.33;80.88
42247;BME280;27913;42.722;23.268;2022-10-20T02:34:45;95397.81;;;10.61;81.42
42247;BME280;27913;42.722;23.268;2022-10-20T02:37:12;95520.41;;;11.33;81.20
42247;BME280;27913;42.722;23.268;2022-10-20T02:39:38;95525.03;;;11.31;81.49
42247;BME280;27913;42.722;23.268;2022-10-20T02:42:03;95527.72;;;11.22;81.50
42247;BME280;27913;42.722;23.268;2022-10-20T02:44:29;95401.69;;;10.50;81.18
42247;BME280;27913;42.722;23.268;2022-10-20T02:46:55;95259.06;;;9.63;80.43
42247;BME280;27913;42.722;23.268;2022-10-20T02:49:21;95527.25;;;11.19;80.43
42247;BME280;27913;42.722;23.268;2022-10-20T02:51:47;95466.63;;;10.73;80.03
42247;BME280;27913;42.722;23.268;2022-10-20T02:54:13;95533.69;;;11.16;80.06
42247;BME280;27913;42.722;23.268;2022-10-20T02:56:39;95532.53;;;11.19;79.64
42247;BME280;27913;42.722;23.268;2022-10-20T02:59:05;95421.53;;;10.53;80.03
42247;BME280;27913;42.722;23.268;2022-10-20T03:01:31;95518.72;;;11.17;79.66
42247;BME280;27913;42.722;23.268;2022-10-20T03:03:56;95528.44;;;11.16;79.90
42247;BME280;27913;42.722;23.268;2022-10-20T03:06:24;95476.03;;;10.68;79.72
42247;BME280;27913;42.722;23.268;2022-10-20T03:08:50;95539.50;;;11.11;79.90
42247;BME280;27913;42.722;23.268;2022-10-20T03:11:16;95247.78;;;9.30;80.15
42247;BME280;27913;42.722;23.268;2022-10-20T03:13:42;95538.03;;;11.09;80.75
42247;BME280;27913;42.722;23.268;2022-10-20T03:16:08;95533.41;;;11.11;80.29
42247;BME280;27913;42.722;23.268;2022-10-20T03:18:34;95537.69;;;11.12;80.37
42247;BME280;27913;42.722;23.268;2022-10-20T03:20:59;95524.41;;;11.05;80.63
42247;BME280;27913;42.722;23.268;2022-10-20T03:23:25;95541.84;;;11.06;80.39
42247;BME280;27913;42.722;23.268;2022-10-20T03:25:51;95545.16;;;11.00;80.68
42247;BME280;27913;42.722;23.268;2022-10-20T03:28:17;95542.25;;;10.95;80.77
42247;BME280;27913;42.722;23.268;2022-10-20T03:30:43;95361.41;;;9.79;80.88
42247;BME280;27913;42.722;23.268;2022-10-20T03:33:11;95541.44;;;10.94;81.11
42247;BME280;27913;42.722;23.268;2022-10-20T03:35:37;95553.22;;;10.98;81.04
42247;BME280;27913;42.722;23.268;2022-10-20T03:38:03;95549.81;;;10.98;81.28
42247;BME280;27913;42.722;23.268;2022-10-20T03:40:28;95552.75;;;10.95;81.12
42247;BME280;27913;42.722;23.268;2022-10-20T03:42:54;95369.28;;;9.79;81.49
42247;BME280;27913;42.722;23.268;2022-10-20T03:45:20;95556.19;;;10.80;82.14
42247;BME280;27913;42.722;23.268;2022-10-20T03:47:46;95558.63;;;10.82;82.40
42247;BME280;27913;42.722;23.268;2022-10-20T03:50:13;95484.28;;;10.33;82.26
42247;BME280;27913;42.722;23.268;2022-10-20T03:52:39;95312.91;;;9.27;82.62
42247;BME280;27913;42.722;23.268;2022-10-20T03:55:04;95558.44;;;10.83;82.52
42247;BME280;27913;42.722;23.268;2022-10-20T03:57:30;95485.38;;;10.38;82.31
42247;BME280;27913;42.722;23.268;2022-10-20T03:59:55;95561.25;;;10.82;82.69
42247;BME280;27913;42.722;23.268;2022-10-20T04:02:37;95499.47;;;10.46;82.48
42247;BME280;27913;42.722;23.268;2022-10-20T04:05:04;95569.94;;;10.82;82.50
42247;BME280;27913;42.722;23.268;2022-10-20T04:07:30;95290.34;;;9.09;81.98
42247;BME280;27913;42.722;23.268;2022-10-20T04:09:56;95496.41;;;10.34;82.21
42247;BME280;27913;42.722;23.268;2022-10-20T04:12:22;95570.38;;;10.71;82.64
42247;BME280;27913;42.722;23.268;2022-10-20T04:14:48;95578.25;;;10.71;82.95
42247;BME280;27913;42.722;23.268;2022-10-20T04:17:14;95455.44;;;10.16;82.37
42247;BME280;27913;42.722;23.268;2022-10-20T04:19:40;95565.94;;;10.71;82.40
42247;BME280;27913;42.722;23.268;2022-10-20T04:22:05;95565.03;;;10.79;82.19
42247;BME280;27913;42.722;23.268;2022-10-20T04:24:31;95319.00;;;9.19;81.79
42247;BME280;27913;42.722;23.268;2022-10-20T04:26:57;95574.63;;;10.72;82.30
42247;BME280;27913;42.722;23.268;2022-10-20T04:29:22;95572.53;;;10.67;82.00
42247;BME280;27913;42.722;23.268;2022-10-20T04:31:48;95491.75;;;10.21;82.09
42247;BME280;27913;42.722;23.268;2022-10-20T04:34:14;95571.88;;;10.65;82.30
42247;BME280;27913;42.722;23.268;2022-10-20T04:36:39;95567.25;;;10.67;82.67
42247;BME280;27913;42.722;23.268;2022-10-20T04:39:05;95579.94;;;10.63;82.64
42247;BME280;27913;42.722;23.268;2022-10-20T04:41:31;95576.19;;;10.58;83.17
42247;BME280;27913;42.722;23.268;2022-10-20T04:43:56;95564.72;;;10.50;83.71
42247;BME280;27913;42.722;23.268;2022-10-20T04:46:22;95530.47;;;10.27;83.28
42247;BME280;27913;42.722;23.268;2022-10-20T04:48:47;95551.63;;;10.34;83.20
42247;BME280;27913;42.722;23.268;2022-10-20T04:51:14;95544.75;;;10.24;83.52
42247;BME280;27913;42.722;23.268;2022-10-20T04:53:40;95583.28;;;10.49;83.86
42247;BME280;27913;42.722;23.268;2022-10-20T04:56:07;95502.34;;;9.96;83.90
42247;BME280;27913;42.722;23.268;2022-10-20T04:58:34;95573.91;;;10.46;84.00
42247;BME280;27913;42.722;23.268;2022-10-20T05:01:01;95584.13;;;10.49;84.50
42247;BME280;27913;42.722;23.268;2022-10-20T05:03:28;95526.63;;;10.06;84.33
42247;BME280;27913;42.722;23.268;2022-10-20T05:05:53;95595.28;;;10.51;84.73
42247;BME280;27913;42.722;23.268;2022-10-20T05:08:19;95597.25;;;10.49;84.86
42247;BME280;27913;42.722;23.268;2022-10-20T05:10:44;95330.97;;;8.73;85.24
42247;BME280;27913;42.722;23.268;2022-10-20T05:13:10;95482.56;;;9.76;85.60
42247;BME280;27913;42.722;23.268;2022-10-20T05:15:35;95575.31;;;10.25;85.49
42247;BME280;27913;42.722;23.268;2022-10-20T05:18:01;95599.38;;;10.46;85.29
42247;BME280;27913;42.722;23.268;2022-10-20T05:20:27;95608.09;;;10.46;85.26
42247;BME280;27913;42.722;23.268;2022-10-20T05:22:52;95605.34;;;10.39;85.28
42247;BME280;27913;42.722;23.268;2022-10-20T05:25:17;95622.75;;;10.41;85.20
42247;BME280;27913;42.722;23.268;2022-10-20T05:27:43;95611.72;;;10.45;85.00
42247;BME280;27913;42.722;23.268;2022-10-20T05:30:09;95549.97;;;10.01;84.67
42247;BME280;27913;42.722;23.268;2022-10-20T05:32:35;95532.63;;;9.83;84.79
42247;BME280;27913;42.722;23.268;2022-10-20T05:35:00;95629.19;;;10.38;85.09
42247;BME280;27913;42.722;23.268;2022-10-20T05:37:26;95621.78;;;10.33;84.86
42247;BME280;27913;42.722;23.268;2022-10-20T05:39:51;95650.16;;;10.46;85.18
42247;BME280;27913;42.722;23.268;2022-10-20T05:42:17;95651.97;;;10.46;85.98
42247;BME280;27913;42.722;23.268;2022-10-20T05:44:42;95653.16;;;10.51;85.77
42247;BME280;27913;42.722;23.268;2022-10-20T05:47:08;95646.25;;;10.50;85.95
42247;BME280;27913;42.722;23.268;2022-10-20T05:49:34;95649.53;;;10.44;86.47
42247;BME280;27913;42.722;23.268;2022-10-20T05:51:59;95663.66;;;10.51;86.87
42247;BME280;27913;42.722;23.268;2022-10-20T05:54:24;95545.72;;;9.91;86.82
42247;BME280;27913;42.722;23.268;2022-10-20T05:56:50;95679.41;;;10.60;87.15
42247;BME280;27913;42.722;23.268;2022-10-20T05:59:15;95681.53;;;10.65;87.21
42247;BME280;27913;42.722;23.268;2022-10-20T06:01:41;95693.16;;;10.70;87.16
42247;BME280;27913;42.722;23.268;2022-10-20T06:04:18;95686.94;;;10.71;87.84
42247;BME280;27913;42.722;23.268;2022-10-20T06:06:44;95478.06;;;9.37;87.67
42247;BME280;27913;42.722;23.268;2022-10-20T06:09:10;95581.28;;;10.11;87.74
42247;BME280;27913;42.722;23.268;2022-10-20T06:11:36;95691.31;;;10.79;87.85
42247;BME280;27913;42.722;23.268;2022-10-20T06:14:02;95335.91;;;8.68;87.78
42247;BME280;27913;42.722;23.268;2022-10-20T06:16:28;95576.00;;;10.19;87.51
42247;BME280;27913;42.722;23.268;2022-10-20T06:18:56;95712.16;;;10.97;87.63
42247;BME280;27913;42.722;23.268;2022-10-20T06:21:23;95622.72;;;10.49;87.63
42247;BME280;27913;42.722;23.268;2022-10-20T06:23:50;95702.94;;;10.93;87.96
42247;BME280;27913;42.722;23.268;2022-10-20T06:26:20;95612.97;;;10.26;87.96
42247;BME280;27913;42.722;23.268;2022-10-20T06:28:48;95611.75;;;10.37;88.18
42247;BME280;27913;42.722;23.268;2022-10-20T06:31:22;95713.75;;;11.07;87.62
42247;BME280;27913;42.722;23.268;2022-10-20T06:33:49;95501.09;;;9.83;87.08
42247;BME280;27913;42.722;23.268;2022-10-20T06:36:15;95728.13;;;11.19;86.70
42247;BME280;27913;42.722;23.268;2022-10-20T06:38:41;95720.25;;;11.19;86.21
42247;BME280;27913;42.722;23.268;2022-10-20T06:41:12;95604.50;;;10.39;86.01
42247;BME280;27913;42.722;23.268;2022-10-20T06:43:38;95604.00;;;10.52;85.54
42247;BME280;27913;42.722;23.268;2022-10-20T06:46:06;95741.78;;;11.23;85.39
42247;BME280;27913;42.722;23.268;2022-10-20T06:48:33;95734.06;;;11.21;85.26
42247;BME280;27913;42.722;23.268;2022-10-20T06:51:03;95712.81;;;11.23;84.98
42247;BME280;27913;42.722;23.268;2022-10-20T06:53:30;95592.19;;;10.39;84.42
42247;BME280;27913;42.722;23.268;2022-10-20T06:56:01;95479.28;;;9.74;84.16
42247;BME280;27913;42.722;23.268;2022-10-20T06:58:28;95739.63;;;11.27;84.39
42247;BME280;27913;42.722;23.268;2022-10-20T07:01:09;95627.09;;;10.65;83.93
42247;BME280;27913;42.722;23.268;2022-10-20T07:03:36;95723.66;;;11.28;83.96
42247;BME280;27913;42.722;23.268;2022-10-20T07:06:03;95675.34;;;10.89;83.37
42247;BME280;27913;42.722;23.268;2022-10-20T07:08:31;95518.00;;;9.89;82.98
42247;BME280;27913;42.722;23.268;2022-10-20T07:11:05;95737.78;;;11.35;83.23
42247;BME280;27913;42.722;23.268;2022-10-20T07:13:33;95670.38;;;10.94;83.11
42247;BME280;27913;42.722;23.268;2022-10-20T07:15:59;95732.84;;;11.32;82.66
42247;BME280;27913;42.722;23.268;2022-10-20T07:18:26;95493.50;;;9.88;82.07
42247;BME280;27913;42.722;23.268;2022-10-20T07:21:03;95747.81;;;11.40;82.50
42247;BME280;27913;42.722;23.268;2022-10-20T07:23:30;95741.59;;;11.24;83.12
42247;BME280;27913;42.722;23.268;2022-10-20T07:26:00;95689.88;;;11.08;83.34
42247;BME280;27913;42.722;23.268;2022-10-20T07:28:26;95444.03;;;9.60;82.89
42247;BME280;27913;42.722;23.268;2022-10-20T07:30:51;95744.81;;;11.43;81.99
42247;BME280;27913;42.722;23.268;2022-10-20T07:33:17;95751.41;;;11.39;82.03
42247;BME280;27913;42.722;23.268;2022-10-20T07:35:42;95752.19;;;11.48;81.49
42247;BME280;27913;42.722;23.268;2022-10-20T07:38:08;95747.09;;;11.46;80.64
42247;BME280;27913;42.722;23.268;2022-10-20T07:40:33;95745.13;;;11.48;80.36
42247;BME280;27913;42.722;23.268;2022-10-20T07:42:59;95752.78;;;11.58;79.77
42247;BME280;27913;42.722;23.268;2022-10-20T07:45:24;95744.34;;;11.63;79.24
42247;BME280;27913;42.722;23.268;2022-10-20T07:47:50;95614.06;;;10.80;79.38
42247;BME280;27913;42.722;23.268;2022-10-20T07:50:16;95743.59;;;11.54;78.72
42247;BME280;27913;42.722;23.268;2022-10-20T07:52:41;95538.59;;;10.41;78.61
42247;BME280;27913;42.722;23.268;2022-10-20T07:55:07;95752.72;;;11.67;78.26
42247;BME280;27913;42.722;23.268;2022-10-20T07:57:33;95543.38;;;10.45;77.76
42247;BME280;27913;42.722;23.268;2022-10-20T07:59:58;95603.22;;;10.75;77.64
42247;BME280;27913;42.722;23.268;2022-10-20T08:02:24;95737.25;;;11.64;77.99
42247;BME280;27913;42.722;23.268;2022-10-20T08:04:50;95582.78;;;10.85;76.46
42247;BME280;27913;42.722;23.268;2022-10-20T08:07:15;95569.16;;;10.82;76.39
42247;BME280;27913;42.722;23.268;2022-10-20T08:09:41;95672.69;;;11.44;75.44
42247;BME280;27913;42.722;23.268;2022-10-20T08:12:07;95652.22;;;11.31;74.02
42247;BME280;27913;42.722;23.268;2022-10-20T08:14:34;95645.78;;;11.34;73.31
42247;BME280;27913;42.722;23.268;2022-10-20T08:17:02;95585.00;;;10.97;73.47
42247;BME280;27913;42.722;23.268;2022-10-20T08:19:28;95743.22;;;12.04;73.37
42247;BME280;27913;42.722;23.268;2022-10-20T08:21:54;95705.72;;;11.79;73.25
42247;BME280;27913;42.722;23.268;2022-10-20T08:24:20;95627.16;;;11.35;72.00
42247;BME280;27913;42.722;23.268;2022-10-20T08:26:45;95678.94;;;11.67;71.17
42247;BME280;27913;42.722;23.268;2022-10-20T08:29:11;95651.84;;;11.58;71.30
42247;BME280;27913;42.722;23.268;2022-10-20T08:31:37;95481.94;;;10.70;70.95
42247;BME280;27913;42.722;23.268;2022-10-20T08:34:03;95486.59;;;10.83;70.14
42247;BME280;27913;42.722;23.268;2022-10-20T08:36:29;95744.25;;;12.42;69.33
42247;BME280;27913;42.722;23.268;2022-10-20T08:38:54;95656.03;;;12.06;69.07
42247;BME280;27913;42.722;23.268;2022-10-20T08:41:25;95552.94;;;11.40;69.27
42247;BME280;27913;42.722;23.268;2022-10-20T08:43:54;95476.59;;;11.02;68.02
42247;BME280;27913;42.722;23.268;2022-10-20T08:46:25;95547.09;;;11.45;66.73
42247;BME280;27913;42.722;23.268;2022-10-20T08:48:51;95655.47;;;12.19;66.57
42247;BME280;27913;42.722;23.268;2022-10-20T08:51:20;95465.97;;;11.10;63.44
42247;BME280;27913;42.722;23.268;2022-10-20T08:53:46;95519.31;;;11.42;63.61
42247;BME280;27913;42.722;23.268;2022-10-20T08:56:14;95743.16;;;12.82;62.18
42247;BME280;27913;42.722;23.268;2022-10-20T08:58:44;95690.38;;;12.51;62.01
42247;BME280;27913;42.722;23.268;2022-10-20T09:04:03;95728.84;;;12.76;60.49
42247;BME280;27913;42.722;23.268;2022-10-20T09:06:34;95587.31;;;11.92;59.87
42247;BME280;27913;42.722;23.268;2022-10-20T09:09:00;95732.66;;;12.88;59.85
42247;BME280;27913;42.722;23.268;2022-10-20T09:11:36;95531.78;;;11.64;58.69
42247;BME280;27913;42.722;23.268;2022-10-20T09:14:07;95545.97;;;11.78;58.99
42247;BME280;27913;42.722;23.268;2022-10-20T09:16:34;95630.72;;;12.35;58.51
42247;BME280;27913;42.722;23.268;2022-10-20T09:19:04;95593.59;;;12.06;58.53
42247;BME280;27913;42.722;23.268;2022-10-20T09:21:32;95608.53;;;12.29;57.99
42247;BME280;27913;42.722;23.268;2022-10-20T09:24:04;95535.78;;;11.90;57.62
42247;BME280;27913;42.722;23.268;2022-10-20T09:29:12;95656.94;;;12.89;56.70
42247;BME280;27913;42.722;23.268;2022-10-20T09:31:43;95557.06;;;12.18;55.61
42247;BME280;27913;42.722;23.268;2022-10-20T09:34:23;95670.75;;;13.06;55.52
42247;BME280;27913;42.722;23.268;2022-10-20T09:36:54;95564.34;;;12.31;55.22
42247;BME280;27913;42.722;23.268;2022-10-20T09:39:26;95488.78;;;11.93;54.90
42247;BME280;27913;42.722;23.268;2022-10-20T09:42:01;95551.31;;;12.45;54.42
42247;BME280;27913;42.722;23.268;2022-10-20T09:44:31;95520.31;;;12.32;54.34
42247;BME280;27913;42.722;23.268;2022-10-20T09:46:58;95624.06;;;12.91;54.50
42247;BME280;27913;42.722;23.268;2022-10-20T09:49:36;95659.97;;;13.23;54.02
42247;BME280;27913;42.722;23.268;2022-10-20T09:52:15;95485.31;;;12.23;53.57
42247;BME280;27913;42.722;23.268;2022-10-20T09:54:45;95428.94;;;11.87;54.14
42247;BME280;27913;42.722;23.268;2022-10-20T09:57:17;95625.84;;;13.06;52.76
42247;BME280;27913;42.722;23.268;2022-10-20T09:59:46;95575.06;;;12.82;53.11
42247;BME280;27913;42.722;23.268;2022-10-20T10:04:49;95523.31;;;12.66;52.14
42247;BME280;27913;42.722;23.268;2022-10-20T10:10:09;95520.31;;;12.69;52.68
42247;BME280;27913;42.722;23.268;2022-10-20T10:12:54;95405.06;;;12.11;50.95
42247;BME280;27913;42.722;23.268;2022-10-20T10:15:27;95536.09;;;12.84;51.11
42247;BME280;27913;42.722;23.268;2022-10-20T10:17:54;95584.13;;;13.16;51.42
42247;BME280;27913;42.722;23.268;2022-10-20T10:20:33;95646.19;;;13.71;51.76
42247;BME280;27913;42.722;23.268;2022-10-20T10:23:15;95644.31;;;13.65;51.38
42247;BME280;27913;42.722;23.268;2022-10-20T10:25:43;95715.53;;;13.95;49.85
42247;BME280;27913;42.722;23.268;2022-10-20T10:28:29;95682.56;;;13.91;50.95
42247;BME280;27913;42.722;23.268;2022-10-20T10:31:06;95589.09;;;13.26;50.75
42247;BME280;27913;42.722;23.268;2022-10-20T10:33:32;95573.25;;;13.26;50.79
42247;BME280;27913;42.722;23.268;2022-10-20T10:35:58;95500.19;;;12.90;50.55
42247;BME280;27913;42.722;23.268;2022-10-20T10:38:25;95550.22;;;13.20;50.38
42247;BME280;27913;42.722;23.268;2022-10-20T10:46:07;95480.03;;;12.82;50.21
42247;BME280;27913;42.722;23.268;2022-10-20T10:59:52;95605.03;;;13.84;50.48
42247;BME280;27913;42.722;23.268;2022-10-20T11:08:10;95584.53;;;14.28;49.30
42247;BME280;27913;42.722;23.268;2022-10-20T11:13:42;95659.75;;;14.54;48.61
42247;BME280;27913;42.722;23.268;2022-10-20T11:25:31;95565.88;;;14.01;48.99
42247;BME280;27913;42.722;23.268;2022-10-20T11:27:29;95451.66;;;13.13;49.52
42247;BME280;27913;42.722;23.268;2022-10-20T11:30:01;95423.78;;;13.03;49.24
42247;BME280;27913;42.722;23.268;2022-10-20T11:32:46;95501.69;;;13.50;48.96
42247;BME280;27913;42.722;23.268;2022-10-20T11:36:28;95619.63;;;14.51;48.59
42247;BME280;27913;42.722;23.268;2022-10-20T11:38:41;95586.59;;;14.33;48.14
42247;BME280;27913;42.722;23.268;2022-10-20T11:44:11;95603.38;;;15.98;44.89
42247;BME280;27913;42.722;23.268;2022-10-20T11:47:08;95505.88;;;16.06;42.39
42247;BME280;27913;42.722;23.268;2022-10-20T11:49:38;95473.38;;;14.97;43.43
42247;BME280;27913;42.722;23.268;2022-10-20T12:11:52;95528.06;;;14.56;43.89
42247;BME280;27913;42.722;23.268;2022-10-20T12:14:35;95471.63;;;14.35;44.34
42247;BME280;27913;42.722;23.268;2022-10-20T12:17:13;95530.22;;;14.88;43.62
42247;BME280;27913;42.722;23.268;2022-10-20T12:19:39;95484.50;;;14.59;43.64
42247;BME280;27913;42.722;23.268;2022-10-20T12:27:25;95505.97;;;14.98;42.59
42247;BME280;27913;42.722;23.268;2022-10-20T12:30:00;95541.63;;;15.29;41.86
42247;BME280;27913;42.722;23.268;2022-10-20T12:32:37;95471.28;;;14.72;41.59
42247;BME280;27913;42.722;23.268;2022-10-20T12:35:27;95453.97;;;14.70;40.88
42247;BME280;27913;42.722;23.268;2022-10-20T12:38:00;95604.00;;;15.73;40.39
42247;BME280;27913;42.722;23.268;2022-10-20T12:40:48;95462.56;;;14.85;40.31
42247;BME280;27913;42.722;23.268;2022-10-20T12:43:28;95535.34;;;15.44;40.54
42247;BME280;27913;42.722;23.268;2022-10-20T12:46:02;95416.31;;;14.81;40.26
42247;BME280;27913;42.722;23.268;2022-10-20T12:48:32;95538.38;;;15.54;40.23
42247;BME280;27913;42.722;23.268;2022-10-20T12:51:06;95540.00;;;15.55;40.50
42247;BME280;27913;42.722;23.268;2022-10-20T12:53:33;95532.25;;;15.54;39.24
42247;BME280;27913;42.722;23.268;2022-10-20T12:56:06;95403.09;;;14.81;39.52
42247;BME280;27913;42.722;23.268;2022-10-20T12:58:36;95468.47;;;15.35;39.40
42247;BME280;27913;42.722;23.268;2022-10-20T13:01:09;95441.19;;;15.21;39.19
42247;BME280;27913;42.722;23.268;2022-10-20T13:03:46;95415.94;;;14.98;39.26
42247;BME280;27913;42.722;23.268;2022-10-20T13:17:17;95582.78;;;16.13;39.90
42247;BME280;27913;42.722;23.268;2022-10-20T13:19:47;95510.59;;;15.84;39.50
42247;BME280;27913;42.722;23.268;2022-10-20T13:22:35;95352.59;;;14.90;38.60
42247;BME280;27913;42.722;23.268;2022-10-20T13:25:05;95608.38;;;16.60;38.49
42247;BME280;27913;42.722;23.268;2022-10-20T13:27:36;95544.19;;;16.17;38.41
42247;BME280;27913;42.722;23.268;2022-10-20T13:30:06;95422.34;;;15.63;38.40
42247;BME280;27913;42.722;23.268;2022-10-20T13:35:27;95306.13;;;14.80;38.46
42247;BME280;27913;42.722;23.268;2022-10-20T13:43:19;95591.31;;;16.82;38.34
42247;BME280;27913;42.722;23.268;2022-10-20T13:46:12;95586.09;;;16.61;38.54
42247;BME280;27913;42.722;23.268;2022-10-20T13:51:26;95477.72;;;15.92;37.60
42247;BME280;27913;42.722;23.268;2022-10-20T13:54:04;95513.00;;;16.13;37.79
42247;BME280;27913;42.722;23.268;2022-10-20T13:56:37;95586.66;;;16.70;37.63
42247;BME280;27913;42.722;23.268;2022-10-20T13:59:19;95362.56;;;14.88;37.64
42247;BME280;27913;42.722;23.268;2022-10-20T14:01:51;95592.22;;;16.62;37.79
42247;BME280;27913;42.722;23.268;2022-10-20T14:06:53;95492.19;;;16.10;37.57
42247;BME280;27913;42.722;23.268;2022-10-20T14:09:21;95517.47;;;16.12;37.52
42247;BME280;27913;42.722;23.268;2022-10-20T14:11:50;95399.97;;;15.45;37.48
42247;BME280;27913;42.722;23.268;2022-10-20T14:14:21;95327.91;;;15.03;38.00
42247;BME280;27913;42.722;23.268;2022-10-20T14:16:57;95599.38;;;16.61;38.30
42247;BME280;27913;42.722;23.268;2022-10-20T14:19:24;95543.34;;;16.24;38.02
42247;BME280;27913;42.722;23.268;2022-10-20T14:21:56;95429.69;;;15.61;37.75
42247;BME280;27913;42.722;23.268;2022-10-20T14:24:31;95356.78;;;15.31;38.18
42247;BME280;27913;42.722;23.268;2022-10-20T14:26:59;95376.34;;;15.24;38.30
42247;BME280;27913;42.722;23.268;2022-10-20T14:29:31;95549.63;;;16.36;38.53
42247;BME280;27913;42.722;23.268;2022-10-20T14:31:58;95441.72;;;15.57;39.15
42247;BME280;27913;42.722;23.268;2022-10-20T14:34:27;95405.53;;;15.03;39.87
42247;BME280;27913;42.722;23.268;2022-10-20T14:36:53;95472.13;;;15.48;40.32
42247;BME280;27913;42.722;23.268;2022-10-20T14:39:39;95563.81;;;16.03;40.74
42247;BME280;27913;42.722;23.268;2022-10-20T14:42:34;95432.63;;;15.19;41.00
42247;BME280;27913;42.722;23.268;2022-10-20T14:45:01;95411.88;;;15.02;40.84
42247;BME280;27913;42.722;23.268;2022-10-20T14:47:36;95390.25;;;14.58;41.50
42247;BME280;27913;42.722;23.268;2022-10-20T14:50:03;95524.72;;;15.24;41.78
42247;BME280;27913;42.722;23.268;2022-10-20T14:52:31;95592.00;;;15.70;42.26
42247;BME280;27913;42.722;23.268;2022-10-20T14:54:59;95316.66;;;13.72;42.73
42247;BME280;27913;42.722;23.268;2022-10-20T14:57:35;95325.78;;;13.69;42.52